Appleton, Colorado
Current Conditions -  °F | °C
As of 9:53 PM on Saturday 25 Oct 2014 (Local Time) from KGJT Reporting Station
Clear Clear  
Wind Chill: 12°   Ceiling: Unl
Heat Index: 12°   Visibility: 10mi
Dew Point:   Wind: 7mph
Humidity: 43%   Direction: 100°E
Pressure: 30.06"   Gusts: NA
Location:  39.1857°N, 108.6°W
Report Text: KGJT 260353Z AUTO 10006KT 10SM CLR 12/00 A3006 RMK AO2 SLP137 T01220000
Loading
Personal Weather Stations






























Interactive Weather Map New forecast layout! Learn more

10-Day Weather Forecast

Advertisements
Track Severe Weather on mobile